Greasy Creek, Kentucky
Current Conditions -  °F | °C
As of 10:15 PM on Tuesday 25 Nov 2014 (Local Time) from KPBX Reporting Station
Clear Clear  
Wind Chill: 39°   Ceiling: Unl
Heat Index: 42°   Visibility: 10mi
Dew Point: 28°   Wind: 5mph
Humidity: 57%   Direction: 340°NNW
Pressure: 30.11"   Gusts: NA
Location:  37.3722°N, 82.4513°W
Report Text: KPBX 260315Z AUTO 34004KT 10SM CLR 06/M02 A3011 RMK AO2 T00571022
Loading
Personal Weather Stations






























Interactive Weather Map New forecast layout! Learn more

10-Day Weather Forecast

Advertisements
Track Severe Weather on mobile